createdAt,value
2023-05-14T00:00:24.732Z,66.82
2023-05-14T00:02:52.095Z,66.06
2023-05-14T00:05:18.922Z,66.44
2023-05-14T00:07:45.856Z,66.73
2023-05-14T00:10:12.826Z,66.31
2023-05-14T00:12:39.793Z,66.92
2023-05-14T00:15:07.379Z,66.41
2023-05-14T00:17:34.372Z,66.72
2023-05-14T00:20:01.568Z,67.45
2023-05-14T00:22:28.451Z,67.19
2023-05-14T00:24:55.551Z,67.85
2023-05-14T00:27:22.475Z,68.15
2023-05-14T00:29:49.375Z,68.75
2023-05-14T00:32:16.308Z,67.95
2023-05-14T00:34:43.529Z,68.12
2023-05-14T00:37:10.538Z,67.58
2023-05-14T00:39:37.482Z,67.84
2023-05-14T00:42:04.737Z,68.44
2023-05-14T00:44:31.557Z,68.55
2023-05-14T00:46:59.688Z,67.76
2023-05-14T00:49:27.431Z,68.40
2023-05-14T00:51:57.406Z,68.54
2023-05-14T00:54:24.388Z,68.86
2023-05-14T00:56:51.446Z,68.87
2023-05-14T00:59:18.133Z,69.44
2023-05-14T01:01:45.084Z,69.47
2023-05-14T01:04:12.796Z,69.89
2023-05-14T01:07:04.054Z,70.74
2023-05-14T01:09:44.904Z,70.19
2023-05-14T01:12:27.308Z,70.48
2023-05-14T01:15:05.639Z,70.29
2023-05-14T01:17:37.932Z,71.62
2023-05-14T01:20:05.506Z,71.77
2023-05-14T01:22:32.507Z,71.88
2023-05-14T01:24:59.442Z,71.16
2023-05-14T01:27:35.460Z,73.25
2023-05-14T01:30:47.461Z,73.60
2023-05-14T01:33:19.560Z,72.68
2023-05-14T01:35:46.840Z,73.93
2023-05-14T01:38:18.351Z,73.87
2023-05-14T01:40:46.858Z,73.15
2023-05-14T01:43:14.954Z,75.08
2023-05-14T01:45:42.682Z,76.55
2023-05-14T01:48:09.938Z,76.14
2023-05-14T01:50:37.035Z,75.20
2023-05-14T01:53:03.715Z,74.72
2023-05-14T01:55:30.758Z,73.36
2023-05-14T01:58:00.458Z,74.50
2023-05-14T02:00:27.668Z,74.68
2023-05-14T02:02:54.565Z,73.76
2023-05-14T02:05:28.838Z,73.67
2023-05-14T02:07:55.868Z,73.03
2023-05-14T02:10:23.015Z,72.36
2023-05-14T02:12:50.195Z,72.98
2023-05-14T02:15:17.199Z,73.14
2023-05-14T02:17:44.161Z,73.79
2023-05-14T02:20:11.645Z,73.25
2023-05-14T02:22:38.724Z,74.07
2023-05-14T02:25:06.241Z,73.39
2023-05-14T02:27:33.186Z,73.29
2023-05-14T02:30:01.047Z,73.26
2023-05-14T02:32:28.777Z,73.69
2023-05-14T02:34:55.662Z,73.63
2023-05-14T02:37:22.682Z,74.64
2023-05-14T02:39:49.695Z,75.29
2023-05-14T02:42:16.515Z,74.07
2023-05-14T02:44:43.413Z,75.14
2023-05-14T02:47:10.363Z,75.70
2023-05-14T02:49:37.360Z,75.31
2023-05-14T02:52:04.351Z,74.52
2023-05-14T02:54:31.237Z,75.53
2023-05-14T02:56:58.162Z,74.89
2023-05-14T02:59:25.357Z,74.79
2023-05-14T03:01:54.696Z,75.29
2023-05-14T03:04:21.912Z,74.40
2023-05-14T03:06:48.790Z,73.53
2023-05-14T03:09:15.641Z,74.16
2023-05-14T03:11:42.712Z,74.24
2023-05-14T03:14:09.625Z,74.53
2023-05-14T03:16:36.646Z,73.29
2023-05-14T03:19:04.279Z,73.24
2023-05-14T03:21:32.081Z,72.89
2023-05-14T03:23:59.070Z,72.82
2023-05-14T03:26:26.024Z,72.59
2023-05-14T03:28:52.961Z,72.93
2023-05-14T03:31:19.995Z,72.33
2023-05-14T03:33:47.644Z,74.13
2023-05-14T03:36:14.582Z,74.29
2023-05-14T03:38:41.356Z,75.74
2023-05-14T03:41:08.565Z,75.97
2023-05-14T03:43:35.739Z,75.43
2023-05-14T03:46:02.777Z,74.98
2023-05-14T03:48:29.815Z,74.59
2023-05-14T03:50:56.837Z,73.53
2023-05-14T03:53:23.925Z,74.15
2023-05-14T03:55:51.044Z,73.54
2023-05-14T03:58:18.054Z,72.52
2023-05-14T04:00:45.212Z,72.17
2023-05-14T04:03:12.302Z,72.31
2023-05-14T04:05:39.500Z,72.39
2023-05-14T04:08:06.637Z,72.83
2023-05-14T04:10:33.570Z,72.44
2023-05-14T04:13:00.573Z,71.65
2023-05-14T04:15:27.639Z,71.66
2023-05-14T04:17:54.528Z,71.40
2023-05-14T04:20:21.350Z,70.93
2023-05-14T04:22:48.343Z,69.53
2023-05-14T04:25:15.198Z,68.86
2023-05-14T04:27:42.172Z,65.76
2023-05-14T04:30:09.791Z,61.51
2023-05-14T04:32:37.004Z,58.59
2023-05-14T04:35:05.002Z,57.02
2023-05-14T04:37:32.263Z,54.45
2023-05-14T04:39:59.258Z,49.95
2023-05-14T04:42:26.181Z,46.89
2023-05-14T04:44:53.110Z,44.48
2023-05-14T04:47:21.290Z,42.31
2023-05-14T04:49:48.492Z,40.94
2023-05-14T04:52:15.677Z,39.74
2023-05-14T04:54:42.614Z,39.36
2023-05-14T04:57:09.779Z,38.53
2023-05-14T04:59:36.965Z,36.66
2023-05-14T05:02:03.786Z,35.70
2023-05-14T05:04:30.848Z,36.68
2023-05-14T05:06:58.053Z,35.42
2023-05-14T05:09:24.889Z,36.00
2023-05-14T05:11:51.958Z,35.55
2023-05-14T05:14:18.878Z,32.46
2023-05-14T05:16:46.210Z,33.04
2023-05-14T05:19:13.514Z,32.31
2023-05-14T05:21:41.149Z,32.90
2023-05-14T05:24:11.313Z,31.88
2023-05-14T05:26:38.546Z,30.10
2023-05-14T05:29:06.251Z,29.08
2023-05-14T05:31:33.357Z,29.11
2023-05-14T05:34:00.917Z,28.28
2023-05-14T05:36:27.797Z,29.09
2023-05-14T05:38:55.611Z,30.78
2023-05-14T05:41:22.911Z,31.70
2023-05-14T05:43:49.817Z,31.43
2023-05-14T05:46:16.801Z,31.23
2023-05-14T05:48:46.677Z,32.48
2023-05-14T05:51:14.677Z,33.80
2023-05-14T05:53:41.713Z,34.15
2023-05-14T05:56:08.665Z,34.06
2023-05-14T05:58:35.782Z,35.09
2023-05-14T06:01:02.920Z,32.25
2023-05-14T06:03:29.977Z,31.66
2023-05-14T06:05:56.810Z,30.71
2023-05-14T06:08:23.638Z,29.28
2023-05-14T06:10:50.501Z,29.62
2023-05-14T06:13:17.530Z,31.03
2023-05-14T06:15:44.602Z,33.19
2023-05-14T06:18:11.757Z,32.21
2023-05-14T06:20:38.914Z,32.01
2023-05-14T06:23:06.233Z,31.79
2023-05-14T06:25:33.048Z,30.61
2023-05-14T06:28:00.210Z,28.54
2023-05-14T06:30:27.069Z,27.20
2023-05-14T06:32:54.031Z,26.77
2023-05-14T06:35:21.104Z,24.60
2023-05-14T06:37:47.955Z,24.68
2023-05-14T06:40:17.529Z,23.46
2023-05-14T06:42:44.646Z,23.65
2023-05-14T06:45:11.895Z,24.33
2023-05-14T06:47:38.752Z,24.04
2023-05-14T06:50:06.120Z,24.21
2023-05-14T06:52:33.290Z,22.73
2023-05-14T06:55:00.227Z,20.77
2023-05-14T06:57:27.605Z,19.51
2023-05-14T06:59:54.538Z,20.75
2023-05-14T07:02:22.437Z,21.44
2023-05-14T07:04:49.393Z,21.58
2023-05-14T07:07:20.746Z,18.76
2023-05-14T07:09:48.561Z,18.50
2023-05-14T07:12:15.545Z,17.71
2023-05-14T07:14:42.553Z,16.27
2023-05-14T07:17:09.508Z,15.61
2023-05-14T07:19:36.552Z,15.76
2023-05-14T07:22:03.702Z,16.72
2023-05-14T07:24:30.501Z,16.96
2023-05-14T07:26:57.852Z,17.74
2023-05-14T07:29:26.750Z,17.11
2023-05-14T07:31:53.788Z,17.21
2023-05-14T07:34:21.234Z,18.77
2023-05-14T07:36:48.372Z,18.04
2023-05-14T07:39:15.298Z,16.11
2023-05-14T07:41:42.212Z,16.75
2023-05-14T07:44:09.326Z,20.11
2023-05-14T07:46:37.339Z,22.45
2023-05-14T07:49:04.358Z,22.36
2023-05-14T07:51:33.521Z,21.35
2023-05-14T07:54:00.797Z,21.04
2023-05-14T07:56:27.684Z,18.88
2023-05-14T07:58:54.807Z,17.12
2023-05-14T08:01:22.040Z,17.26
2023-05-14T08:03:49.322Z,15.86
2023-05-14T08:06:16.133Z,16.03
2023-05-14T08:08:43.160Z,16.46
2023-05-14T08:11:10.241Z,15.70
2023-05-14T08:13:37.145Z,15.60
2023-05-14T08:16:04.317Z,16.18
2023-05-14T08:18:31.255Z,18.38
2023-05-14T08:20:58.160Z,16.88
2023-05-14T08:23:25.227Z,15.79
2023-05-14T08:25:52.439Z,15.65
2023-05-14T08:28:19.422Z,16.47
2023-05-14T08:30:46.321Z,13.68
2023-05-14T08:33:13.402Z,14.15
2023-05-14T08:35:40.365Z,13.29
2023-05-14T08:38:07.198Z,13.63
2023-05-14T08:40:34.202Z,12.61
2023-05-14T08:43:02.739Z,11.46
2023-05-14T08:45:34.212Z,11.58
2023-05-14T08:48:05.342Z,13.17
2023-05-14T08:50:32.531Z,14.86
2023-05-14T08:52:59.733Z,13.72
2023-05-14T08:55:28.596Z,16.19
2023-05-14T08:57:56.561Z,16.80
2023-05-14T09:00:24.105Z,12.83
2023-05-14T09:02:51.809Z,13.59
2023-05-14T09:05:19.788Z,13.40
2023-05-14T09:07:47.320Z,13.99
2023-05-14T09:10:15.632Z,11.68
2023-05-14T09:12:42.601Z,11.23
2023-05-14T09:15:09.900Z,12.22
2023-05-14T09:17:36.904Z,16.20
2023-05-14T09:20:05.006Z,15.91
2023-05-14T09:22:32.627Z,14.73
2023-05-14T09:25:04.889Z,13.67
2023-05-14T09:27:33.633Z,12.79
2023-05-14T09:30:11.666Z,11.64
2023-05-14T09:32:40.525Z,10.46
2023-05-14T09:35:17.801Z,12.14
2023-05-14T09:37:50.112Z,9.92
2023-05-14T09:40:18.878Z,10.90
2023-05-14T09:42:46.198Z,11.71
2023-05-14T09:45:13.687Z,9.89
2023-05-14T09:47:40.917Z,10.54
2023-05-14T09:50:08.780Z,9.70
2023-05-14T09:52:36.011Z,9.19
2023-05-14T09:55:03.413Z,13.10
2023-05-14T09:57:30.298Z,10.65
2023-05-14T09:59:57.352Z,8.75
2023-05-14T10:02:37.873Z,8.73
2023-05-14T10:05:07.022Z,10.41
2023-05-14T10:07:47.731Z,12.66
2023-05-14T10:10:18.958Z,12.77
2023-05-14T10:12:59.157Z,11.92
2023-05-14T10:15:49.401Z,12.23
2023-05-14T10:18:24.417Z,12.48
2023-05-14T10:21:04.276Z,11.20
2023-05-14T10:23:31.307Z,8.13
2023-05-14T10:26:02.166Z,9.45
2023-05-14T10:28:29.150Z,8.54
2023-05-14T10:30:56.182Z,6.03
2023-05-14T10:33:23.383Z,5.41
2023-05-14T10:35:57.579Z,6.39
2023-05-14T10:38:35.708Z,8.65
2023-05-14T10:41:10.381Z,11.82
2023-05-14T10:43:39.912Z,13.91
2023-05-14T10:46:08.510Z,17.66
2023-05-14T10:48:37.811Z,20.94
2023-05-14T10:51:07.931Z,16.58
2023-05-14T10:53:37.226Z,11.29
2023-05-14T10:56:09.276Z,10.51
2023-05-14T10:58:43.163Z,12.19
2023-05-14T11:01:13.026Z,14.49
2023-05-14T11:03:47.348Z,16.74
2023-05-14T11:06:16.517Z,13.14
2023-05-14T11:08:44.795Z,9.56
2023-05-14T11:11:11.926Z,8.25
2023-05-14T11:13:38.960Z,10.62
2023-05-14T11:18:41.182Z,16.03
2023-05-14T11:21:08.087Z,11.89
2023-05-14T11:23:35.130Z,9.84
2023-05-14T11:26:02.311Z,9.20
2023-05-14T11:28:30.173Z,10.47
2023-05-14T11:30:57.397Z,14.82
2023-05-14T11:33:24.167Z,16.60
2023-05-14T11:35:52.280Z,19.11
2023-05-14T11:38:21.558Z,21.34
2023-05-14T11:40:54.061Z,22.96
2023-05-14T11:43:23.894Z,22.08
2023-05-14T11:45:52.753Z,23.76
2023-05-14T11:48:20.880Z,25.51
2023-05-14T11:50:48.932Z,24.49
2023-05-14T11:53:27.110Z,24.67
2023-05-14T11:55:55.407Z,21.58
2023-05-14T11:58:22.687Z,22.12
2023-05-14T12:00:53.958Z,24.38
2023-05-14T12:03:26.123Z,24.50
2023-05-14T12:06:00.336Z,24.59
2023-05-14T12:08:29.704Z,24.58
2023-05-14T12:10:58.432Z,24.22
2023-05-14T12:13:30.472Z,24.33
2023-05-14T12:16:00.524Z,24.47
2023-05-14T12:18:29.651Z,24.58
2023-05-14T12:21:02.021Z,25.92
2023-05-14T12:23:32.647Z,25.61
2023-05-14T12:26:09.507Z,25.11
2023-05-14T12:28:43.746Z,24.10
2023-05-14T12:31:10.884Z,23.38
2023-05-14T12:33:37.832Z,23.14
2023-05-14T12:36:20.557Z,22.29
2023-05-14T12:38:49.246Z,22.59
2023-05-14T12:41:16.662Z,22.52
2023-05-14T12:43:44.577Z,22.55
2023-05-14T12:46:11.606Z,22.29
2023-05-14T12:48:38.573Z,23.82
2023-05-14T12:51:05.774Z,24.17
2023-05-14T12:53:32.847Z,23.36
2023-05-14T12:55:59.820Z,23.91
2023-05-14T12:58:26.754Z,24.74
2023-05-14T13:00:56.090Z,23.84
2023-05-14T13:03:23.552Z,23.62
2023-05-14T13:05:52.328Z,22.49
2023-05-14T13:08:21.655Z,23.25
2023-05-14T13:10:48.743Z,25.65
2023-05-14T13:13:16.552Z,23.98
2023-05-14T13:15:43.707Z,24.73
2023-05-14T13:18:10.744Z,25.01
2023-05-14T13:20:37.725Z,26.00
2023-05-14T13:23:05.159Z,25.97
2023-05-14T13:25:32.098Z,26.78
2023-05-14T13:27:59.170Z,25.45
2023-05-14T13:30:26.199Z,25.62
2023-05-14T13:32:53.213Z,25.57
2023-05-14T13:35:20.098Z,25.90
2023-05-14T13:37:47.706Z,25.66
2023-05-14T13:40:14.699Z,25.89
2023-05-14T13:42:41.595Z,25.61
2023-05-14T13:45:09.482Z,24.71
2023-05-14T13:47:36.418Z,24.38
2023-05-14T13:50:04.002Z,23.64
2023-05-14T13:52:31.281Z,22.21
2023-05-14T13:54:58.326Z,22.45
2023-05-14T13:57:25.189Z,23.30
2023-05-14T13:59:59.380Z,24.92
2023-05-14T14:02:26.452Z,24.03
2023-05-14T14:04:53.306Z,24.46
2023-05-14T14:07:21.441Z,23.17
2023-05-14T14:09:48.516Z,24.43
2023-05-14T14:12:15.588Z,22.79
2023-05-14T14:14:42.797Z,22.25
2023-05-14T14:17:09.869Z,24.11
2023-05-14T14:19:36.724Z,24.63
2023-05-14T14:22:04.023Z,24.80
2023-05-14T14:24:31.026Z,26.16
2023-05-14T14:26:58.235Z,25.84
2023-05-14T14:29:25.130Z,27.26
2023-05-14T14:31:52.200Z,27.06
2023-05-14T14:34:19.252Z,27.51
2023-05-14T14:36:46.316Z,28.40
2023-05-14T14:39:13.292Z,28.32
2023-05-14T14:41:40.325Z,27.13
2023-05-14T14:44:07.326Z,26.99
2023-05-14T14:46:34.367Z,28.05
2023-05-14T14:49:01.499Z,28.18
2023-05-14T14:51:28.625Z,28.19
2023-05-14T14:53:55.907Z,26.32
2023-05-14T14:56:22.984Z,26.82
2023-05-14T14:58:49.854Z,26.06
2023-05-14T15:01:17.182Z,27.07
2023-05-14T15:03:45.913Z,25.22
2023-05-14T15:06:13.010Z,25.75
2023-05-14T15:08:39.966Z,25.07
2023-05-14T15:11:07.813Z,25.36
2023-05-14T15:13:35.222Z,24.70
2023-05-14T15:16:02.595Z,24.80
2023-05-14T15:18:29.601Z,24.33
2023-05-14T15:20:56.951Z,25.07
2023-05-14T15:23:23.779Z,24.79
2023-05-14T15:25:51.123Z,24.05
2023-05-14T15:28:18.057Z,23.65
2023-05-14T15:30:45.040Z,24.88
2023-05-14T15:33:12.365Z,25.55
2023-05-14T15:35:39.440Z,25.83
2023-05-14T15:38:07.229Z,27.01
2023-05-14T15:40:35.386Z,27.63
2023-05-14T15:43:02.240Z,27.78
2023-05-14T15:45:29.259Z,27.07
2023-05-14T15:47:56.698Z,27.62
2023-05-14T15:50:23.930Z,26.73
2023-05-14T15:52:51.248Z,27.97
2023-05-14T15:55:18.487Z,27.36
2023-05-14T15:57:45.365Z,28.60
2023-05-14T16:00:12.647Z,29.01
2023-05-14T16:02:40.001Z,28.41
2023-05-14T16:05:08.616Z,28.86
2023-05-14T16:07:36.466Z,28.81
2023-05-14T16:10:04.070Z,28.81
2023-05-14T16:12:31.111Z,28.70
2023-05-14T16:14:58.021Z,28.18
2023-05-14T16:17:26.886Z,28.29
2023-05-14T16:19:56.305Z,28.41
2023-05-14T16:22:23.748Z,29.44
2023-05-14T16:24:50.944Z,29.94
2023-05-14T16:27:19.336Z,30.36
2023-05-14T16:29:46.653Z,29.65
2023-05-14T16:32:13.950Z,30.57
2023-05-14T16:34:40.989Z,31.59
2023-05-14T16:37:08.722Z,32.70
2023-05-14T16:39:36.352Z,32.24
2023-05-14T16:42:03.478Z,32.85
2023-05-14T16:44:30.381Z,33.11
2023-05-14T16:46:57.537Z,32.35
2023-05-14T16:49:24.636Z,31.47
2023-05-14T16:51:51.659Z,32.91
2023-05-14T16:54:18.665Z,32.58
2023-05-14T16:56:48.598Z,32.21
2023-05-14T16:59:16.901Z,32.42
2023-05-14T17:01:44.916Z,32.31
2023-05-14T17:04:12.006Z,31.80
2023-05-14T17:06:38.966Z,31.83
2023-05-14T17:09:07.038Z,32.13
2023-05-14T17:11:33.910Z,31.25
2023-05-14T17:14:00.916Z,30.97
2023-05-14T17:16:27.977Z,31.59
2023-05-14T17:18:55.086Z,30.19
2023-05-14T17:21:24.877Z,29.97
2023-05-14T17:23:52.035Z,30.34
2023-05-14T17:26:19.039Z,31.43
2023-05-14T17:28:46.031Z,32.55
2023-05-14T17:31:12.972Z,32.40
2023-05-14T17:33:39.892Z,32.65
2023-05-14T17:36:07.248Z,34.04
2023-05-14T17:38:34.992Z,33.56
2023-05-14T17:41:02.235Z,34.67
2023-05-14T17:43:29.323Z,35.20
2023-05-14T17:45:56.325Z,35.47
2023-05-14T17:48:24.301Z,36.01
2023-05-14T17:50:52.145Z,37.25
2023-05-14T17:53:19.587Z,37.50
2023-05-14T17:55:46.752Z,37.08
2023-05-14T17:58:15.678Z,37.38
2023-05-14T18:00:44.008Z,37.11
2023-05-14T18:03:11.880Z,37.58
2023-05-14T18:05:39.026Z,37.22
2023-05-14T18:08:06.122Z,38.46
2023-05-14T18:10:33.234Z,37.96
2023-05-14T18:13:00.272Z,38.52
2023-05-14T18:15:27.622Z,38.52
2023-05-14T18:17:55.016Z,38.89
2023-05-14T18:20:22.164Z,39.30
2023-05-14T18:22:50.811Z,39.32
2023-05-14T18:25:17.928Z,39.92
2023-05-14T18:27:45.851Z,39.35
2023-05-14T18:30:14.873Z,39.84
2023-05-14T18:32:43.837Z,40.83
2023-05-14T18:35:13.100Z,41.76
2023-05-14T18:37:41.149Z,42.11
2023-05-14T18:40:09.048Z,43.03
2023-05-14T18:42:36.046Z,43.06
2023-05-14T18:45:04.363Z,43.98
2023-05-14T18:47:31.889Z,43.49
2023-05-14T18:50:00.649Z,45.47
2023-05-14T18:52:30.447Z,45.55
2023-05-14T18:54:57.484Z,43.90
2023-05-14T18:57:27.091Z,45.24
2023-05-14T18:59:54.231Z,46.06
2023-05-14T19:02:21.498Z,45.97
2023-05-14T19:04:52.702Z,46.45
2023-05-14T19:07:21.065Z,48.10
2023-05-14T19:09:51.022Z,47.94
2023-05-14T19:12:18.051Z,48.22
2023-05-14T19:14:44.910Z,49.29
2023-05-14T19:17:12.143Z,48.46
2023-05-14T19:19:40.674Z,48.19
2023-05-14T19:22:07.564Z,48.40
2023-05-14T19:24:34.590Z,49.20
2023-05-14T19:27:01.624Z,49.62
2023-05-14T19:29:28.754Z,49.58
2023-05-14T19:31:55.729Z,49.96
2023-05-14T19:34:22.762Z,50.10
2023-05-14T19:36:50.293Z,50.13
2023-05-14T19:39:17.462Z,51.04
2023-05-14T19:41:44.484Z,50.99
2023-05-14T19:44:11.297Z,51.72
2023-05-14T19:46:38.270Z,51.71
2023-05-14T19:49:05.370Z,51.60
2023-05-14T19:51:32.439Z,51.91
2023-05-14T19:53:59.264Z,52.13
2023-05-14T19:56:27.279Z,53.12
2023-05-14T19:58:54.501Z,53.13
2023-05-14T20:01:21.673Z,54.23
2023-05-14T20:03:48.999Z,54.70
2023-05-14T20:06:17.690Z,54.70
2023-05-14T20:08:47.561Z,55.05
2023-05-14T20:11:15.912Z,54.49
2023-05-14T20:13:43.019Z,54.02
2023-05-14T20:16:10.146Z,55.13
2023-05-14T20:18:36.970Z,55.02
2023-05-14T20:21:04.171Z,54.74
2023-05-14T20:23:31.203Z,54.55
2023-05-14T20:25:58.148Z,54.13
2023-05-14T20:28:25.105Z,54.79
2023-05-14T20:30:52.561Z,54.65
2023-05-14T20:33:19.571Z,54.43
2023-05-14T20:35:46.489Z,55.34
2023-05-14T20:38:13.606Z,55.78
2023-05-14T20:40:40.904Z,55.26
2023-05-14T20:43:08.091Z,55.32
2023-05-14T20:45:35.009Z,55.08
2023-05-14T20:48:02.111Z,55.89
2023-05-14T20:50:29.305Z,56.29
2023-05-14T20:52:56.132Z,56.84
2023-05-14T20:55:23.547Z,56.46
2023-05-14T20:57:50.923Z,56.36
2023-05-14T21:00:18.154Z,57.41
2023-05-14T21:02:45.525Z,57.60
2023-05-14T21:05:14.187Z,57.57
2023-05-14T21:07:41.180Z,57.29
2023-05-14T21:10:09.855Z,57.25
2023-05-14T21:12:37.424Z,57.98
2023-05-14T21:15:04.907Z,57.15
2023-05-14T21:17:32.029Z,57.39
2023-05-14T21:19:58.848Z,58.51
2023-05-14T21:22:27.310Z,58.24
2023-05-14T21:24:55.911Z,59.70
2023-05-14T21:27:23.170Z,59.33
2023-05-14T21:29:50.321Z,60.34
2023-05-14T21:32:17.372Z,59.54
2023-05-14T21:34:44.747Z,59.04
2023-05-14T21:37:11.876Z,60.35
2023-05-14T21:39:38.843Z,60.52
2023-05-14T21:42:05.990Z,61.18
2023-05-14T21:44:32.963Z,61.66
2023-05-14T21:46:59.886Z,61.70
2023-05-14T21:49:26.844Z,61.94
2023-05-14T21:51:54.806Z,62.46
2023-05-14T21:54:21.794Z,62.47
2023-05-14T21:56:49.251Z,62.29
2023-05-14T21:59:16.135Z,62.71
2023-05-14T22:04:14.455Z,64.03
2023-05-14T22:06:41.471Z,64.39
2023-05-14T22:09:11.627Z,64.89
2023-05-14T22:11:38.498Z,64.10
2023-05-14T22:14:05.328Z,65.63
2023-05-14T22:16:33.452Z,64.71
2023-05-14T22:19:00.390Z,64.87
2023-05-14T22:21:30.093Z,65.72
2023-05-14T22:23:57.178Z,66.78
2023-05-14T22:26:23.991Z,66.48
2023-05-14T22:28:50.936Z,65.83
2023-05-14T22:31:17.857Z,66.80
2023-05-14T22:33:44.757Z,67.25
2023-05-14T22:36:11.650Z,67.44
2023-05-14T22:38:39.316Z,67.47
2023-05-14T22:41:07.312Z,68.60
2023-05-14T22:43:34.154Z,68.94
2023-05-14T22:46:01.259Z,69.22
2023-05-14T22:48:28.079Z,68.50
2023-05-14T22:50:54.967Z,68.49
2023-05-14T22:53:21.652Z,68.48
2023-05-14T22:55:48.702Z,68.46
2023-05-14T22:58:15.685Z,68.10
2023-05-14T23:00:42.564Z,68.69
2023-05-14T23:03:09.411Z,69.11
2023-05-14T23:05:36.189Z,70.25
2023-05-14T23:08:02.913Z,70.96
2023-05-14T23:10:29.867Z,71.88
2023-05-14T23:12:59.354Z,71.17
2023-05-14T23:15:27.147Z,72.15
2023-05-14T23:17:54.409Z,73.05
2023-05-14T23:20:21.858Z,71.75
2023-05-14T23:22:48.841Z,72.96
2023-05-14T23:25:15.794Z,72.76
2023-05-14T23:27:42.750Z,72.69
2023-05-14T23:30:10.238Z,73.58
2023-05-14T23:32:37.198Z,74.69
2023-05-14T23:35:04.424Z,74.62
2023-05-14T23:37:31.655Z,73.95
2023-05-14T23:39:58.626Z,74.16
2023-05-14T23:42:25.689Z,74.88
2023-05-14T23:44:52.546Z,75.11
2023-05-14T23:47:19.478Z,74.86
2023-05-14T23:49:46.321Z,73.93
2023-05-14T23:52:13.167Z,75.54
2023-05-14T23:54:40.129Z,74.54
2023-05-14T23:57:07.075Z,75.76
2023-05-14T23:59:33.913Z,75.76
